sensor_id;sensor_type;location;lat;lon;timestamp;P1;durP1;ratioP1;P2;durP2;ratioP2
14732;SDS011;7457;50.960;6.830;2023-08-20T00:00:24;14.40;;;10.63;;
14732;SDS011;7457;50.960;6.830;2023-08-20T00:02:51;10.70;;;8.75;;
14732;SDS011;7457;50.960;6.830;2023-08-20T00:05:23;12.50;;;8.77;;
14732;SDS011;7457;50.960;6.830;2023-08-20T00:07:49;11.27;;;7.78;;
14732;SDS011;7457;50.960;6.830;2023-08-20T00:10:14;7.80;;;6.75;;
14732;SDS011;7457;50.960;6.830;2023-08-20T00:12:40;8.10;;;7.30;;
14732;SDS011;7457;50.960;6.830;2023-08-20T00:15:06;8.88;;;8.02;;
14732;SDS011;7457;50.960;6.830;2023-08-20T00:17:33;10.02;;;7.47;;
14732;SDS011;7457;50.960;6.830;2023-08-20T00:19:59;9.52;;;6.78;;
14732;SDS011;7457;50.960;6.830;2023-08-20T00:22:26;12.27;;;7.60;;
14732;SDS011;7457;50.960;6.830;2023-08-20T00:24:52;9.20;;;7.70;;
14732;SDS011;7457;50.960;6.830;2023-08-20T00:27:18;10.30;;;7.78;;
14732;SDS011;7457;50.960;6.830;2023-08-20T00:29:45;10.23;;;8.20;;
14732;SDS011;7457;50.960;6.830;2023-08-20T00:32:10;10.88;;;7.47;;
14732;SDS011;7457;50.960;6.830;2023-08-20T00:34:36;9.20;;;8.07;;
14732;SDS011;7457;50.960;6.830;2023-08-20T00:37:02;10.45;;;7.40;;
14732;SDS011;7457;50.960;6.830;2023-08-20T00:39:28;8.73;;;7.82;;
14732;SDS011;7457;50.960;6.830;2023-08-20T00:41:54;8.80;;;7.90;;
14732;SDS011;7457;50.960;6.830;2023-08-20T00:44:20;10.18;;;8.60;;
14732;SDS011;7457;50.960;6.830;2023-08-20T00:46:46;11.57;;;8.52;;
14732;SDS011;7457;50.960;6.830;2023-08-20T00:49:12;9.65;;;8.30;;
14732;SDS011;7457;50.960;6.830;2023-08-20T00:51:38;10.40;;;8.10;;
14732;SDS011;7457;50.960;6.830;2023-08-20T00:54:04;9.20;;;7.63;;
14732;SDS011;7457;50.960;6.830;2023-08-20T00:56:30;9.23;;;7.68;;
14732;SDS011;7457;50.960;6.830;2023-08-20T00:58:55;10.15;;;7.60;;
14732;SDS011;7457;50.960;6.830;2023-08-20T01:01:22;11.10;;;8.23;;
14732;SDS011;7457;50.960;6.830;2023-08-20T01:03:48;11.02;;;7.85;;
14732;SDS011;7457;50.960;6.830;2023-08-20T01:09:10;11.25;;;7.85;;
14732;SDS011;7457;50.960;6.830;2023-08-20T01:11:40;9.98;;;8.68;;
14732;SDS011;7457;50.960;6.830;2023-08-20T01:14:17;12.90;;;9.93;;
14732;SDS011;7457;50.960;6.830;2023-08-20T01:16:43;13.63;;;10.00;;
14732;SDS011;7457;50.960;6.830;2023-08-20T01:19:10;11.30;;;9.07;;
14732;SDS011;7457;50.960;6.830;2023-08-20T01:25:11;11.32;;;9.63;;
14732;SDS011;7457;50.960;6.830;2023-08-20T01:28:01;13.80;;;9.77;;
14732;SDS011;7457;50.960;6.830;2023-08-20T01:30:43;12.73;;;9.98;;
14732;SDS011;7457;50.960;6.830;2023-08-20T01:33:10;14.95;;;10.77;;
14732;SDS011;7457;50.960;6.830;2023-08-20T01:35:37;17.00;;;11.73;;
14732;SDS011;7457;50.960;6.830;2023-08-20T01:38:03;13.75;;;11.25;;
14732;SDS011;7457;50.960;6.830;2023-08-20T01:40:29;15.50;;;11.68;;
14732;SDS011;7457;50.960;6.830;2023-08-20T01:42:55;13.38;;;11.20;;
14732;SDS011;7457;50.960;6.830;2023-08-20T01:45:22;19.95;;;11.10;;
14732;SDS011;7457;50.960;6.830;2023-08-20T01:47:47;15.68;;;11.65;;
14732;SDS011;7457;50.960;6.830;2023-08-20T01:50:13;10.95;;;9.63;;
14732;SDS011;7457;50.960;6.830;2023-08-20T01:52:39;16.95;;;10.77;;
14732;SDS011;7457;50.960;6.830;2023-08-20T01:55:05;17.17;;;12.15;;
14732;SDS011;7457;50.960;6.830;2023-08-20T01:57:30;12.93;;;10.80;;
14732;SDS011;7457;50.960;6.830;2023-08-20T01:59:57;19.80;;;11.82;;
14732;SDS011;7457;50.960;6.830;2023-08-20T02:02:23;12.63;;;10.02;;
14732;SDS011;7457;50.960;6.830;2023-08-20T02:04:49;13.55;;;9.88;;
14732;SDS011;7457;50.960;6.830;2023-08-20T02:07:14;14.85;;;10.93;;
14732;SDS011;7457;50.960;6.830;2023-08-20T02:09:40;11.85;;;10.65;;
14732;SDS011;7457;50.960;6.830;2023-08-20T02:12:06;15.65;;;11.30;;
14732;SDS011;7457;50.960;6.830;2023-08-20T02:14:32;15.00;;;12.18;;
14732;SDS011;7457;50.960;6.830;2023-08-20T02:17:01;17.73;;;12.15;;
14732;SDS011;7457;50.960;6.830;2023-08-20T02:19:27;14.40;;;12.07;;
14732;SDS011;7457;50.960;6.830;2023-08-20T02:21:53;16.42;;;12.55;;
14732;SDS011;7457;50.960;6.830;2023-08-20T02:24:18;17.17;;;13.13;;
14732;SDS011;7457;50.960;6.830;2023-08-20T02:26:44;14.70;;;11.25;;
14732;SDS011;7457;50.960;6.830;2023-08-20T02:29:10;16.75;;;11.43;;
14732;SDS011;7457;50.960;6.830;2023-08-20T02:31:36;13.27;;;10.57;;
14732;SDS011;7457;50.960;6.830;2023-08-20T02:34:01;13.55;;;10.30;;
14732;SDS011;7457;50.960;6.830;2023-08-20T02:36:27;13.70;;;11.10;;
14732;SDS011;7457;50.960;6.830;2023-08-20T02:38:53;16.20;;;11.25;;
14732;SDS011;7457;50.960;6.830;2023-08-20T02:41:18;12.73;;;10.95;;
14732;SDS011;7457;50.960;6.830;2023-08-20T02:43:44;14.93;;;11.55;;
14732;SDS011;7457;50.960;6.830;2023-08-20T02:46:10;14.00;;;10.70;;
14732;SDS011;7457;50.960;6.830;2023-08-20T02:48:36;13.73;;;10.77;;
14732;SDS011;7457;50.960;6.830;2023-08-20T02:51:02;13.05;;;11.75;;
14732;SDS011;7457;50.960;6.830;2023-08-20T02:53:28;13.15;;;10.30;;
14732;SDS011;7457;50.960;6.830;2023-08-20T02:55:54;14.98;;;11.82;;
14732;SDS011;7457;50.960;6.830;2023-08-20T02:58:21;12.32;;;10.95;;
14732;SDS011;7457;50.960;6.830;2023-08-20T03:00:46;11.40;;;10.25;;
14732;SDS011;7457;50.960;6.830;2023-08-20T03:03:12;12.73;;;11.43;;
14732;SDS011;7457;50.960;6.830;2023-08-20T03:05:38;15.35;;;12.40;;
14732;SDS011;7457;50.960;6.830;2023-08-20T03:08:04;15.52;;;13.02;;
14732;SDS011;7457;50.960;6.830;2023-08-20T03:10:30;18.08;;;11.60;;
14732;SDS011;7457;50.960;6.830;2023-08-20T03:12:59;15.73;;;12.25;;
14732;SDS011;7457;50.960;6.830;2023-08-20T03:15:29;15.98;;;11.85;;
14732;SDS011;7457;50.960;6.830;2023-08-20T03:17:55;14.32;;;12.82;;
14732;SDS011;7457;50.960;6.830;2023-08-20T03:20:20;18.60;;;13.57;;
14732;SDS011;7457;50.960;6.830;2023-08-20T03:22:46;20.13;;;15.68;;
14732;SDS011;7457;50.960;6.830;2023-08-20T03:25:12;22.63;;;16.13;;
14732;SDS011;7457;50.960;6.830;2023-08-20T03:27:38;18.48;;;15.20;;
14732;SDS011;7457;50.960;6.830;2023-08-20T03:30:03;21.58;;;16.63;;
14732;SDS011;7457;50.960;6.830;2023-08-20T03:32:30;21.17;;;14.80;;
14732;SDS011;7457;50.960;6.830;2023-08-20T03:34:56;17.92;;;14.18;;
14732;SDS011;7457;50.960;6.830;2023-08-20T03:37:24;17.80;;;12.40;;
14732;SDS011;7457;50.960;6.830;2023-08-20T03:39:50;25.92;;;17.08;;
14732;SDS011;7457;50.960;6.830;2023-08-20T03:42:15;21.60;;;18.13;;
14732;SDS011;7457;50.960;6.830;2023-08-20T03:44:41;25.83;;;17.77;;
14732;SDS011;7457;50.960;6.830;2023-08-20T03:47:07;23.92;;;16.77;;
14732;SDS011;7457;50.960;6.830;2023-08-20T03:49:32;22.60;;;16.30;;
14732;SDS011;7457;50.960;6.830;2023-08-20T03:51:58;24.92;;;17.27;;
14732;SDS011;7457;50.960;6.830;2023-08-20T03:54:24;27.60;;;18.30;;
14732;SDS011;7457;50.960;6.830;2023-08-20T03:56:49;28.00;;;18.15;;
14732;SDS011;7457;50.960;6.830;2023-08-20T03:59:15;26.60;;;18.60;;
14732;SDS011;7457;50.960;6.830;2023-08-20T04:01:40;28.33;;;19.52;;
14732;SDS011;7457;50.960;6.830;2023-08-20T04:04:06;22.85;;;19.45;;
14732;SDS011;7457;50.960;6.830;2023-08-20T04:06:32;25.10;;;20.00;;
14732;SDS011;7457;50.960;6.830;2023-08-20T04:08:57;26.17;;;20.52;;
14732;SDS011;7457;50.960;6.830;2023-08-20T04:11:23;28.48;;;20.60;;
14732;SDS011;7457;50.960;6.830;2023-08-20T04:13:49;28.92;;;19.98;;
14732;SDS011;7457;50.960;6.830;2023-08-20T04:16:14;27.73;;;20.13;;
14732;SDS011;7457;50.960;6.830;2023-08-20T04:18:40;27.52;;;21.05;;
14732;SDS011;7457;50.960;6.830;2023-08-20T04:21:06;32.42;;;20.90;;
14732;SDS011;7457;50.960;6.830;2023-08-20T04:23:32;30.95;;;21.75;;
14732;SDS011;7457;50.960;6.830;2023-08-20T04:25:58;24.75;;;20.45;;
14732;SDS011;7457;50.960;6.830;2023-08-20T04:28:23;25.13;;;20.38;;
14732;SDS011;7457;50.960;6.830;2023-08-20T04:30:51;26.85;;;20.65;;
14732;SDS011;7457;50.960;6.830;2023-08-20T04:33:19;30.02;;;21.33;;
14732;SDS011;7457;50.960;6.830;2023-08-20T04:35:44;28.95;;;20.17;;
14732;SDS011;7457;50.960;6.830;2023-08-20T04:38:10;31.40;;;21.67;;
14732;SDS011;7457;50.960;6.830;2023-08-20T04:40:36;25.05;;;20.58;;
14732;SDS011;7457;50.960;6.830;2023-08-20T04:43:01;27.00;;;20.83;;
14732;SDS011;7457;50.960;6.830;2023-08-20T04:45:27;24.63;;;19.77;;
14732;SDS011;7457;50.960;6.830;2023-08-20T04:47:52;25.77;;;19.40;;
14732;SDS011;7457;50.960;6.830;2023-08-20T04:50:18;28.17;;;19.00;;
14732;SDS011;7457;50.960;6.830;2023-08-20T04:52:44;25.02;;;19.27;;
14732;SDS011;7457;50.960;6.830;2023-08-20T04:55:09;28.83;;;20.40;;
14732;SDS011;7457;50.960;6.830;2023-08-20T04:57:35;30.77;;;20.25;;
14732;SDS011;7457;50.960;6.830;2023-08-20T05:00:00;26.25;;;19.70;;
14732;SDS011;7457;50.960;6.830;2023-08-20T05:02:26;25.52;;;20.17;;
14732;SDS011;7457;50.960;6.830;2023-08-20T05:04:52;30.65;;;20.20;;
14732;SDS011;7457;50.960;6.830;2023-08-20T05:07:18;26.33;;;18.33;;
14732;SDS011;7457;50.960;6.830;2023-08-20T05:09:43;23.55;;;18.67;;
14732;SDS011;7457;50.960;6.830;2023-08-20T05:12:09;28.00;;;19.38;;
14732;SDS011;7457;50.960;6.830;2023-08-20T05:14:35;26.88;;;18.05;;
14732;SDS011;7457;50.960;6.830;2023-08-20T05:17:00;25.00;;;18.65;;
14732;SDS011;7457;50.960;6.830;2023-08-20T05:19:26;24.40;;;17.52;;
14732;SDS011;7457;50.960;6.830;2023-08-20T05:21:52;25.63;;;16.35;;
14732;SDS011;7457;50.960;6.830;2023-08-20T05:24:21;22.33;;;17.02;;
14732;SDS011;7457;50.960;6.830;2023-08-20T05:29:36;20.63;;;16.13;;
14732;SDS011;7457;50.960;6.830;2023-08-20T05:32:02;22.17;;;16.05;;
14732;SDS011;7457;50.960;6.830;2023-08-20T05:34:27;23.17;;;16.92;;
14732;SDS011;7457;50.960;6.830;2023-08-20T05:36:53;26.40;;;16.23;;
14732;SDS011;7457;50.960;6.830;2023-08-20T05:39:19;23.25;;;16.67;;
14732;SDS011;7457;50.960;6.830;2023-08-20T05:41:44;22.90;;;16.08;;
14732;SDS011;7457;50.960;6.830;2023-08-20T05:44:10;22.23;;;16.10;;
14732;SDS011;7457;50.960;6.830;2023-08-20T05:46:36;27.15;;;16.85;;
14732;SDS011;7457;50.960;6.830;2023-08-20T05:49:01;24.45;;;15.77;;
14732;SDS011;7457;50.960;6.830;2023-08-20T05:51:27;23.10;;;15.77;;
14732;SDS011;7457;50.960;6.830;2023-08-20T05:53:53;26.33;;;16.23;;
14732;SDS011;7457;50.960;6.830;2023-08-20T05:56:18;23.52;;;16.17;;
14732;SDS011;7457;50.960;6.830;2023-08-20T05:58:44;22.85;;;16.17;;
14732;SDS011;7457;50.960;6.830;2023-08-20T06:01:10;21.80;;;15.20;;
14732;SDS011;7457;50.960;6.830;2023-08-20T06:03:36;19.55;;;15.18;;
14732;SDS011;7457;50.960;6.830;2023-08-20T06:06:02;23.80;;;16.48;;
14732;SDS011;7457;50.960;6.830;2023-08-20T06:08:28;22.55;;;14.95;;
14732;SDS011;7457;50.960;6.830;2023-08-20T06:10:53;19.55;;;15.13;;
14732;SDS011;7457;50.960;6.830;2023-08-20T06:13:19;21.40;;;15.02;;
14732;SDS011;7457;50.960;6.830;2023-08-20T06:15:44;23.10;;;14.98;;
14732;SDS011;7457;50.960;6.830;2023-08-20T06:18:10;19.00;;;14.23;;
14732;SDS011;7457;50.960;6.830;2023-08-20T06:20:36;16.80;;;13.27;;
14732;SDS011;7457;50.960;6.830;2023-08-20T06:23:01;20.80;;;14.20;;
14732;SDS011;7457;50.960;6.830;2023-08-20T06:25:27;19.33;;;14.05;;
14732;SDS011;7457;50.960;6.830;2023-08-20T06:27:53;17.10;;;13.98;;
14732;SDS011;7457;50.960;6.830;2023-08-20T06:30:18;17.27;;;14.00;;
14732;SDS011;7457;50.960;6.830;2023-08-20T06:32:45;17.13;;;13.20;;
14732;SDS011;7457;50.960;6.830;2023-08-20T06:35:11;19.05;;;14.50;;
14732;SDS011;7457;50.960;6.830;2023-08-20T06:37:38;20.30;;;14.15;;
14732;SDS011;7457;50.960;6.830;2023-08-20T06:40:05;15.88;;;13.05;;
14732;SDS011;7457;50.960;6.830;2023-08-20T06:42:31;17.85;;;14.00;;
14732;SDS011;7457;50.960;6.830;2023-08-20T06:44:57;19.02;;;14.18;;
14732;SDS011;7457;50.960;6.830;2023-08-20T06:47:23;16.65;;;14.05;;
14732;SDS011;7457;50.960;6.830;2023-08-20T06:49:49;18.13;;;13.85;;
14732;SDS011;7457;50.960;6.830;2023-08-20T06:52:15;18.88;;;14.98;;
14732;SDS011;7457;50.960;6.830;2023-08-20T06:54:41;20.13;;;15.55;;
14732;SDS011;7457;50.960;6.830;2023-08-20T06:57:06;21.73;;;15.70;;
14732;SDS011;7457;50.960;6.830;2023-08-20T06:59:32;19.83;;;14.73;;
14732;SDS011;7457;50.960;6.830;2023-08-20T07:01:57;20.40;;;13.88;;
14732;SDS011;7457;50.960;6.830;2023-08-20T07:04:23;21.20;;;15.35;;
14732;SDS011;7457;50.960;6.830;2023-08-20T07:06:49;18.95;;;15.48;;
14732;SDS011;7457;50.960;6.830;2023-08-20T07:09:15;25.27;;;16.17;;
14732;SDS011;7457;50.960;6.830;2023-08-20T07:11:41;16.58;;;14.73;;
14732;SDS011;7457;50.960;6.830;2023-08-20T07:14:06;22.85;;;15.40;;
14732;SDS011;7457;50.960;6.830;2023-08-20T07:16:32;21.50;;;14.82;;
14732;SDS011;7457;50.960;6.830;2023-08-20T07:18:58;17.80;;;14.45;;
14732;SDS011;7457;50.960;6.830;2023-08-20T07:21:23;21.77;;;16.10;;
14732;SDS011;7457;50.960;6.830;2023-08-20T07:23:49;19.63;;;15.02;;
14732;SDS011;7457;50.960;6.830;2023-08-20T07:26:15;20.35;;;15.52;;
14732;SDS011;7457;50.960;6.830;2023-08-20T07:28:40;18.55;;;14.90;;
14732;SDS011;7457;50.960;6.830;2023-08-20T07:31:21;19.50;;;14.50;;
14732;SDS011;7457;50.960;6.830;2023-08-20T07:33:51;23.50;;;14.68;;
14732;SDS011;7457;50.960;6.830;2023-08-20T07:36:18;16.30;;;14.60;;
14732;SDS011;7457;50.960;6.830;2023-08-20T07:38:44;20.65;;;15.57;;
14732;SDS011;7457;50.960;6.830;2023-08-20T07:41:10;23.48;;;16.40;;
14732;SDS011;7457;50.960;6.830;2023-08-20T07:43:39;19.42;;;15.57;;
14732;SDS011;7457;50.960;6.830;2023-08-20T07:46:06;23.83;;;16.40;;
14732;SDS011;7457;50.960;6.830;2023-08-20T07:48:33;24.92;;;15.98;;
14732;SDS011;7457;50.960;6.830;2023-08-20T07:50:59;23.48;;;17.33;;
14732;SDS011;7457;50.960;6.830;2023-08-20T07:53:25;23.38;;;16.92;;
14732;SDS011;7457;50.960;6.830;2023-08-20T07:55:51;21.67;;;15.43;;
14732;SDS011;7457;50.960;6.830;2023-08-20T07:58:17;23.00;;;15.85;;
14732;SDS011;7457;50.960;6.830;2023-08-20T08:00:42;26.90;;;17.38;;
14732;SDS011;7457;50.960;6.830;2023-08-20T08:03:08;26.23;;;17.23;;
14732;SDS011;7457;50.960;6.830;2023-08-20T08:05:35;25.15;;;17.73;;
14732;SDS011;7457;50.960;6.830;2023-08-20T08:08:01;24.20;;;17.73;;
14732;SDS011;7457;50.960;6.830;2023-08-20T08:10:27;25.45;;;17.90;;
14732;SDS011;7457;50.960;6.830;2023-08-20T08:12:53;22.77;;;17.73;;
14732;SDS011;7457;50.960;6.830;2023-08-20T08:15:19;22.52;;;16.85;;
14732;SDS011;7457;50.960;6.830;2023-08-20T08:17:44;26.33;;;17.20;;
14732;SDS011;7457;50.960;6.830;2023-08-20T08:20:10;24.58;;;16.67;;
14732;SDS011;7457;50.960;6.830;2023-08-20T08:22:36;24.35;;;17.73;;
14732;SDS011;7457;50.960;6.830;2023-08-20T08:25:01;22.52;;;17.65;;
14732;SDS011;7457;50.960;6.830;2023-08-20T08:27:27;22.98;;;16.48;;
14732;SDS011;7457;50.960;6.830;2023-08-20T08:29:52;23.55;;;19.17;;
14732;SDS011;7457;50.960;6.830;2023-08-20T08:32:18;22.40;;;17.80;;
14732;SDS011;7457;50.960;6.830;2023-08-20T08:34:44;21.92;;;18.02;;
14732;SDS011;7457;50.960;6.830;2023-08-20T08:37:09;22.58;;;18.00;;
14732;SDS011;7457;50.960;6.830;2023-08-20T08:39:36;24.30;;;17.77;;
14732;SDS011;7457;50.960;6.830;2023-08-20T08:42:02;21.60;;;17.38;;
14732;SDS011;7457;50.960;6.830;2023-08-20T08:44:30;25.30;;;18.55;;
14732;SDS011;7457;50.960;6.830;2023-08-20T08:47:00;21.60;;;17.90;;
14732;SDS011;7457;50.960;6.830;2023-08-20T08:49:26;19.77;;;15.23;;
14732;SDS011;7457;50.960;6.830;2023-08-20T08:51:54;19.23;;;15.52;;
14732;SDS011;7457;50.960;6.830;2023-08-20T08:54:21;20.90;;;16.58;;
14732;SDS011;7457;50.960;6.830;2023-08-20T08:56:47;19.13;;;15.52;;
14732;SDS011;7457;50.960;6.830;2023-08-20T08:59:13;17.23;;;14.90;;
14732;SDS011;7457;50.960;6.830;2023-08-20T09:01:40;15.27;;;13.07;;
14732;SDS011;7457;50.960;6.830;2023-08-20T09:04:06;16.88;;;13.30;;
14732;SDS011;7457;50.960;6.830;2023-08-20T09:06:47;14.70;;;12.90;;
14732;SDS011;7457;50.960;6.830;2023-08-20T09:09:14;13.90;;;11.98;;
14732;SDS011;7457;50.960;6.830;2023-08-20T09:11:41;15.02;;;12.60;;
14732;SDS011;7457;50.960;6.830;2023-08-20T09:14:07;15.07;;;11.55;;
14732;SDS011;7457;50.960;6.830;2023-08-20T09:16:33;18.52;;;15.75;;
14732;SDS011;7457;50.960;6.830;2023-08-20T09:18:59;14.07;;;11.93;;
14732;SDS011;7457;50.960;6.830;2023-08-20T09:21:26;11.82;;;10.07;;
14732;SDS011;7457;50.960;6.830;2023-08-20T09:23:57;16.05;;;11.68;;
14732;SDS011;7457;50.960;6.830;2023-08-20T09:26:23;12.10;;;9.98;;
14732;SDS011;7457;50.960;6.830;2023-08-20T09:28:48;10.13;;;9.02;;
14732;SDS011;7457;50.960;6.830;2023-08-20T09:31:14;11.38;;;8.27;;
14732;SDS011;7457;50.960;6.830;2023-08-20T09:33:50;9.57;;;8.65;;
14732;SDS011;7457;50.960;6.830;2023-08-20T09:36:16;9.32;;;7.50;;
14732;SDS011;7457;50.960;6.830;2023-08-20T09:38:41;11.07;;;7.50;;
14732;SDS011;7457;50.960;6.830;2023-08-20T09:41:08;10.75;;;7.13;;
14732;SDS011;7457;50.960;6.830;2023-08-20T09:43:35;8.15;;;5.97;;
14732;SDS011;7457;50.960;6.830;2023-08-20T09:46:03;7.55;;;6.80;;
14732;SDS011;7457;50.960;6.830;2023-08-20T09:48:32;8.05;;;6.10;;
14732;SDS011;7457;50.960;6.830;2023-08-20T09:51:00;9.70;;;5.90;;
14732;SDS011;7457;50.960;6.830;2023-08-20T09:53:37;9.15;;;6.40;;
14732;SDS011;7457;50.960;6.830;2023-08-20T09:56:21;7.97;;;5.32;;
14732;SDS011;7457;50.960;6.830;2023-08-20T09:58:49;7.82;;;5.90;;
14732;SDS011;7457;50.960;6.830;2023-08-20T10:01:16;6.25;;;5.28;;
14732;SDS011;7457;50.960;6.830;2023-08-20T10:03:42;6.30;;;5.55;;
14732;SDS011;7457;50.960;6.830;2023-08-20T10:06:08;8.75;;;6.15;;
14732;SDS011;7457;50.960;6.830;2023-08-20T10:08:36;8.60;;;7.13;;
14732;SDS011;7457;50.960;6.830;2023-08-20T10:11:03;6.78;;;6.07;;
14732;SDS011;7457;50.960;6.830;2023-08-20T10:13:29;9.00;;;7.18;;
14732;SDS011;7457;50.960;6.830;2023-08-20T10:15:55;7.38;;;6.60;;
14732;SDS011;7457;50.960;6.830;2023-08-20T10:18:21;8.13;;;6.60;;
14732;SDS011;7457;50.960;6.830;2023-08-20T10:20:49;7.38;;;6.50;;
14732;SDS011;7457;50.960;6.830;2023-08-20T10:23:16;8.50;;;6.13;;
14732;SDS011;7457;50.960;6.830;2023-08-20T10:25:48;11.02;;;6.72;;
14732;SDS011;7457;50.960;6.830;2023-08-20T10:28:24;9.82;;;6.78;;
14732;SDS011;7457;50.960;6.830;2023-08-20T10:31:25;7.57;;;6.85;;
14732;SDS011;7457;50.960;6.830;2023-08-20T10:36:15;9.18;;;8.35;;
14732;SDS011;7457;50.960;6.830;2023-08-20T10:38:51;8.98;;;7.95;;
14732;SDS011;7457;50.960;6.830;2023-08-20T10:41:24;8.00;;;7.20;;
14732;SDS011;7457;50.960;6.830;2023-08-20T10:43:51;10.25;;;8.27;;
14732;SDS011;7457;50.960;6.830;2023-08-20T10:46:22;10.88;;;8.35;;
14732;SDS011;7457;50.960;6.830;2023-08-20T10:49:07;8.10;;;7.30;;
14732;SDS011;7457;50.960;6.830;2023-08-20T10:51:35;8.15;;;7.30;;
14732;SDS011;7457;50.960;6.830;2023-08-20T10:59:09;8.50;;;6.90;;
14732;SDS011;7457;50.960;6.830;2023-08-20T11:01:38;7.30;;;6.60;;
14732;SDS011;7457;50.960;6.830;2023-08-20T11:04:04;7.88;;;7.18;;
14732;SDS011;7457;50.960;6.830;2023-08-20T11:06:32;7.38;;;6.65;;
14732;SDS011;7457;50.960;6.830;2023-08-20T11:08:58;7.15;;;6.35;;
14732;SDS011;7457;50.960;6.830;2023-08-20T11:11:24;7.93;;;7.20;;
14732;SDS011;7457;50.960;6.830;2023-08-20T11:13:50;7.47;;;6.55;;
14732;SDS011;7457;50.960;6.830;2023-08-20T11:16:16;7.57;;;6.85;;
14732;SDS011;7457;50.960;6.830;2023-08-20T11:18:42;8.43;;;7.63;;
14732;SDS011;7457;50.960;6.830;2023-08-20T11:21:08;7.38;;;6.68;;
14732;SDS011;7457;50.960;6.830;2023-08-20T11:23:34;6.95;;;6.35;;
14732;SDS011;7457;50.960;6.830;2023-08-20T11:26:00;7.70;;;6.93;;
14732;SDS011;7457;50.960;6.830;2023-08-20T11:28:27;8.77;;;7.93;;
14732;SDS011;7457;50.960;6.830;2023-08-20T11:30:53;6.40;;;5.80;;
14732;SDS011;7457;50.960;6.830;2023-08-20T11:33:21;7.47;;;6.50;;
14732;SDS011;7457;50.960;6.830;2023-08-20T11:35:47;8.50;;;7.70;;
14732;SDS011;7457;50.960;6.830;2023-08-20T11:38:13;7.95;;;7.05;;
14732;SDS011;7457;50.960;6.830;2023-08-20T11:40:39;7.18;;;6.10;;
14732;SDS011;7457;50.960;6.830;2023-08-20T11:43:05;7.78;;;6.97;;
14732;SDS011;7457;50.960;6.830;2023-08-20T11:45:31;8.95;;;7.28;;
14732;SDS011;7457;50.960;6.830;2023-08-20T11:47:57;7.35;;;6.70;;
14732;SDS011;7457;50.960;6.830;2023-08-20T11:50:23;8.30;;;7.50;;
14732;SDS011;7457;50.960;6.830;2023-08-20T11:52:49;7.10;;;6.50;;
14732;SDS011;7457;50.960;6.830;2023-08-20T11:55:22;7.30;;;6.60;;
14732;SDS011;7457;50.960;6.830;2023-08-20T11:57:50;8.77;;;6.85;;
14732;SDS011;7457;50.960;6.830;2023-08-20T12:00:23;8.15;;;6.90;;
14732;SDS011;7457;50.960;6.830;2023-08-20T12:02:53;9.07;;;7.00;;
14732;SDS011;7457;50.960;6.830;2023-08-20T12:05:29;7.90;;;7.18;;
14732;SDS011;7457;50.960;6.830;2023-08-20T12:07:58;8.68;;;7.05;;
14732;SDS011;7457;50.960;6.830;2023-08-20T12:10:28;6.60;;;6.07;;
14732;SDS011;7457;50.960;6.830;2023-08-20T12:12:55;13.02;;;7.07;;
14732;SDS011;7457;50.960;6.830;2023-08-20T12:15:22;8.70;;;6.60;;
14732;SDS011;7457;50.960;6.830;2023-08-20T12:18:01;7.35;;;6.68;;
14732;SDS011;7457;50.960;6.830;2023-08-20T12:20:31;6.90;;;6.30;;
14732;SDS011;7457;50.960;6.830;2023-08-20T12:23:01;10.65;;;6.88;;
14732;SDS011;7457;50.960;6.830;2023-08-20T12:25:32;6.78;;;6.13;;
14732;SDS011;7457;50.960;6.830;2023-08-20T12:28:02;6.00;;;5.43;;
14732;SDS011;7457;50.960;6.830;2023-08-20T12:30:29;9.38;;;6.00;;
14732;SDS011;7457;50.960;6.830;2023-08-20T12:32:55;6.70;;;5.72;;
14732;SDS011;7457;50.960;6.830;2023-08-20T12:35:21;6.75;;;6.07;;
14732;SDS011;7457;50.960;6.830;2023-08-20T12:37:47;6.30;;;5.65;;
14732;SDS011;7457;50.960;6.830;2023-08-20T12:40:12;7.47;;;5.45;;
14732;SDS011;7457;50.960;6.830;2023-08-20T12:42:38;7.10;;;6.28;;
14732;SDS011;7457;50.960;6.830;2023-08-20T12:45:05;7.78;;;6.35;;
14732;SDS011;7457;50.960;6.830;2023-08-20T12:47:32;8.98;;;5.97;;
14732;SDS011;7457;50.960;6.830;2023-08-20T12:49:58;6.93;;;6.32;;
14732;SDS011;7457;50.960;6.830;2023-08-20T12:52:24;6.85;;;6.25;;
14732;SDS011;7457;50.960;6.830;2023-08-20T12:54:49;9.15;;;6.75;;
14732;SDS011;7457;50.960;6.830;2023-08-20T12:57:15;9.35;;;6.28;;
14732;SDS011;7457;50.960;6.830;2023-08-20T12:59:40;6.38;;;5.75;;
14732;SDS011;7457;50.960;6.830;2023-08-20T13:02:06;6.72;;;6.03;;
14732;SDS011;7457;50.960;6.830;2023-08-20T13:04:32;8.13;;;5.47;;
14732;SDS011;7457;50.960;6.830;2023-08-20T13:06:58;9.43;;;6.28;;
14732;SDS011;7457;50.960;6.830;2023-08-20T13:09:24;7.07;;;6.38;;
14732;SDS011;7457;50.960;6.830;2023-08-20T13:11:51;8.43;;;6.28;;
14732;SDS011;7457;50.960;6.830;2023-08-20T13:14:20;7.40;;;6.40;;
14732;SDS011;7457;50.960;6.830;2023-08-20T13:16:46;7.85;;;6.90;;
14732;SDS011;7457;50.960;6.830;2023-08-20T13:19:12;7.22;;;6.45;;
14732;SDS011;7457;50.960;6.830;2023-08-20T13:21:38;10.30;;;6.28;;
14732;SDS011;7457;50.960;6.830;2023-08-20T13:24:03;8.05;;;6.10;;
14732;SDS011;7457;50.960;6.830;2023-08-20T13:26:30;6.80;;;6.10;;
14732;SDS011;7457;50.960;6.830;2023-08-20T13:28:55;10.63;;;6.53;;
14732;SDS011;7457;50.960;6.830;2023-08-20T13:31:21;6.35;;;5.57;;
14732;SDS011;7457;50.960;6.830;2023-08-20T13:33:47;6.50;;;5.90;;
14732;SDS011;7457;50.960;6.830;2023-08-20T13:36:14;9.35;;;6.25;;
14732;SDS011;7457;50.960;6.830;2023-08-20T13:38:40;8.13;;;5.85;;
14732;SDS011;7457;50.960;6.830;2023-08-20T13:41:06;9.23;;;5.78;;
14732;SDS011;7457;50.960;6.830;2023-08-20T13:43:32;5.97;;;5.25;;
14732;SDS011;7457;50.960;6.830;2023-08-20T13:45:58;7.50;;;5.80;;
14732;SDS011;7457;50.960;6.830;2023-08-20T13:48:23;6.60;;;5.97;;
14732;SDS011;7457;50.960;6.830;2023-08-20T13:50:49;6.28;;;5.40;;
14732;SDS011;7457;50.960;6.830;2023-08-20T13:53:15;5.88;;;5.25;;
14732;SDS011;7457;50.960;6.830;2023-08-20T13:55:40;6.72;;;6.13;;
14732;SDS011;7457;50.960;6.830;2023-08-20T13:58:06;6.30;;;5.70;;
14732;SDS011;7457;50.960;6.830;2023-08-20T14:00:32;6.53;;;5.93;;
14732;SDS011;7457;50.960;6.830;2023-08-20T14:02:58;6.38;;;5.75;;
14732;SDS011;7457;50.960;6.830;2023-08-20T14:05:23;11.32;;;6.45;;
14732;SDS011;7457;50.960;6.830;2023-08-20T14:07:49;6.38;;;5.20;;
14732;SDS011;7457;50.960;6.830;2023-08-20T14:10:15;5.40;;;4.90;;
14732;SDS011;7457;50.960;6.830;2023-08-20T14:12:41;8.98;;;5.38;;
14732;SDS011;7457;50.960;6.830;2023-08-20T14:15:07;6.95;;;5.47;;
14732;SDS011;7457;50.960;6.830;2023-08-20T14:17:33;8.80;;;6.25;;
14732;SDS011;7457;50.960;6.830;2023-08-20T14:19:58;6.72;;;5.50;;
14732;SDS011;7457;50.960;6.830;2023-08-20T14:22:24;5.80;;;5.30;;
14732;SDS011;7457;50.960;6.830;2023-08-20T14:24:50;6.57;;;5.55;;
14732;SDS011;7457;50.960;6.830;2023-08-20T14:27:16;8.90;;;6.22;;
14732;SDS011;7457;50.960;6.830;2023-08-20T14:29:42;8.07;;;4.88;;
14732;SDS011;7457;50.960;6.830;2023-08-20T14:32:08;7.20;;;4.45;;
14732;SDS011;7457;50.960;6.830;2023-08-20T14:34:33;5.80;;;5.20;;
14732;SDS011;7457;50.960;6.830;2023-08-20T14:36:59;6.13;;;5.00;;
14732;SDS011;7457;50.960;6.830;2023-08-20T14:39:24;6.10;;;5.50;;
14732;SDS011;7457;50.960;6.830;2023-08-20T14:41:50;5.32;;;4.82;;
14732;SDS011;7457;50.960;6.830;2023-08-20T14:44:16;7.07;;;5.32;;
14732;SDS011;7457;50.960;6.830;2023-08-20T14:46:41;7.45;;;5.50;;
14732;SDS011;7457;50.960;6.830;2023-08-20T14:49:07;6.28;;;5.57;;
14732;SDS011;7457;50.960;6.830;2023-08-20T14:51:33;7.70;;;6.10;;
14732;SDS011;7457;50.960;6.830;2023-08-20T14:53:59;9.30;;;8.43;;
14732;SDS011;7457;50.960;6.830;2023-08-20T14:56:25;5.85;;;4.95;;
14732;SDS011;7457;50.960;6.830;2023-08-20T14:58:51;6.57;;;5.43;;